sensor_id;sensor_type;location;lat;lon;timestamp;P1;durP1;ratioP1;P2;durP2;ratioP2
57535;SDS011;43361;49.790;8.960;2023-03-13T00:08:50;5.07;;;2.42;;
57535;SDS011;43361;49.790;8.960;2023-03-13T00:18:53;3.78;;;2.03;;
57535;SDS011;43361;49.790;8.960;2023-03-13T00:28:54;5.72;;;2.20;;
57535;SDS011;43361;49.790;8.960;2023-03-13T00:38:56;7.45;;;1.95;;
57535;SDS011;43361;49.790;8.960;2023-03-13T00:48:57;4.50;;;2.35;;
57535;SDS011;43361;49.790;8.960;2023-03-13T00:58:58;5.05;;;2.10;;
57535;SDS011;43361;49.790;8.960;2023-03-13T01:09:00;4.10;;;1.90;;
57535;SDS011;43361;49.790;8.960;2023-03-13T01:19:03;3.20;;;1.95;;
57535;SDS011;43361;49.790;8.960;2023-03-13T01:29:04;5.43;;;1.75;;
57535;SDS011;43361;49.790;8.960;2023-03-13T01:49:06;3.63;;;2.00;;
57535;SDS011;43361;49.790;8.960;2023-03-13T01:59:09;6.00;;;1.85;;
57535;SDS011;43361;49.790;8.960;2023-03-13T02:09:12;3.78;;;1.70;;
57535;SDS011;43361;49.790;8.960;2023-03-13T02:19:16;5.53;;;2.03;;
57535;SDS011;43361;49.790;8.960;2023-03-13T02:29:18;3.45;;;1.50;;
57535;SDS011;43361;49.790;8.960;2023-03-13T02:39:19;2.70;;;1.30;;
57535;SDS011;43361;49.790;8.960;2023-03-13T02:49:23;4.55;;;1.73;;
57535;SDS011;43361;49.790;8.960;2023-03-13T02:59:24;2.90;;;1.52;;
57535;SDS011;43361;49.790;8.960;2023-03-13T03:09:26;5.67;;;1.60;;
57535;SDS011;43361;49.790;8.960;2023-03-13T03:19:26;2.58;;;1.30;;
57535;SDS011;43361;49.790;8.960;2023-03-13T03:29:28;2.97;;;1.40;;
57535;SDS011;43361;49.790;8.960;2023-03-13T03:39:29;2.60;;;1.42;;
57535;SDS011;43361;49.790;8.960;2023-03-13T03:49:30;2.03;;;1.17;;
57535;SDS011;43361;49.790;8.960;2023-03-13T03:59:31;2.25;;;1.10;;
57535;SDS011;43361;49.790;8.960;2023-03-13T04:19:33;2.50;;;1.07;;
57535;SDS011;43361;49.790;8.960;2023-03-13T04:29:33;2.97;;;1.20;;
57535;SDS011;43361;49.790;8.960;2023-03-13T04:39:35;2.25;;;1.20;;
57535;SDS011;43361;49.790;8.960;2023-03-13T04:49:35;2.53;;;1.17;;
57535;SDS011;43361;49.790;8.960;2023-03-13T05:09:37;2.43;;;1.20;;
57535;SDS011;43361;49.790;8.960;2023-03-13T05:19:38;2.53;;;1.10;;
57535;SDS011;43361;49.790;8.960;2023-03-13T05:29:39;2.63;;;0.90;;
57535;SDS011;43361;49.790;8.960;2023-03-13T05:39:40;3.38;;;1.20;;
57535;SDS011;43361;49.790;8.960;2023-03-13T05:59:42;2.03;;;0.90;;
57535;SDS011;43361;49.790;8.960;2023-03-13T06:09:43;1.90;;;0.85;;
57535;SDS011;43361;49.790;8.960;2023-03-13T06:29:44;11.00;;;1.97;;
57535;SDS011;43361;49.790;8.960;2023-03-13T06:39:45;11.68;;;2.95;;
57535;SDS011;43361;49.790;8.960;2023-03-13T06:49:47;10.85;;;3.13;;
57535;SDS011;43361;49.790;8.960;2023-03-13T06:59:47;11.88;;;3.60;;
57535;SDS011;43361;49.790;8.960;2023-03-13T07:19:49;12.53;;;3.40;;
57535;SDS011;43361;49.790;8.960;2023-03-13T07:29:49;9.70;;;2.90;;
57535;SDS011;43361;49.790;8.960;2023-03-13T07:49:51;13.27;;;2.97;;
57535;SDS011;43361;49.790;8.960;2023-03-13T07:59:53;11.27;;;2.60;;
57535;SDS011;43361;49.790;8.960;2023-03-13T08:19:54;12.83;;;3.30;;
57535;SDS011;43361;49.790;8.960;2023-03-13T08:29:55;9.50;;;3.30;;
57535;SDS011;43361;49.790;8.960;2023-03-13T08:39:57;15.27;;;3.13;;
57535;SDS011;43361;49.790;8.960;2023-03-13T08:49:57;10.13;;;3.47;;
57535;SDS011;43361;49.790;8.960;2023-03-13T09:09:59;10.23;;;3.10;;
57535;SDS011;43361;49.790;8.960;2023-03-13T09:19:59;9.93;;;3.20;;
57535;SDS011;43361;49.790;8.960;2023-03-13T09:40:02;12.33;;;3.23;;
57535;SDS011;43361;49.790;8.960;2023-03-13T09:50:04;9.70;;;3.40;;
57535;SDS011;43361;49.790;8.960;2023-03-13T10:00:11;10.23;;;3.20;;
57535;SDS011;43361;49.790;8.960;2023-03-13T10:10:14;13.15;;;3.80;;
57535;SDS011;43361;49.790;8.960;2023-03-13T10:20:20;9.85;;;3.28;;
57535;SDS011;43361;49.790;8.960;2023-03-13T10:30:22;10.18;;;4.10;;
57535;SDS011;43361;49.790;8.960;2023-03-13T10:40:26;8.43;;;3.08;;
57535;SDS011;43361;49.790;8.960;2023-03-13T10:50:30;12.18;;;4.05;;
57535;SDS011;43361;49.790;8.960;2023-03-13T11:00:34;8.48;;;3.63;;
57535;SDS011;43361;49.790;8.960;2023-03-13T11:10:35;8.13;;;3.03;;
57535;SDS011;43361;49.790;8.960;2023-03-13T11:20:37;9.32;;;3.58;;
57535;SDS011;43361;49.790;8.960;2023-03-13T11:40:57;9.63;;;3.80;;
57535;SDS011;43361;49.790;8.960;2023-03-13T11:51:04;9.25;;;3.05;;
57535;SDS011;43361;49.790;8.960;2023-03-13T12:01:09;7.88;;;2.95;;
57535;SDS011;43361;49.790;8.960;2023-03-13T12:11:12;7.65;;;3.30;;
57535;SDS011;43361;49.790;8.960;2023-03-13T12:21:18;8.18;;;3.17;;
57535;SDS011;43361;49.790;8.960;2023-03-13T12:31:21;9.82;;;2.92;;
57535;SDS011;43361;49.790;8.960;2023-03-13T12:41:26;6.65;;;2.60;;
57535;SDS011;43361;49.790;8.960;2023-03-13T12:51:35;8.50;;;3.00;;
57535;SDS011;43361;49.790;8.960;2023-03-13T13:11:46;8.68;;;2.65;;
57535;SDS011;43361;49.790;8.960;2023-03-13T13:21:51;5.13;;;2.42;;
57535;SDS011;43361;49.790;8.960;2023-03-13T13:32:13;6.90;;;2.75;;
57535;SDS011;43361;49.790;8.960;2023-03-13T13:52:35;6.22;;;2.38;;
57535;SDS011;43361;49.790;8.960;2023-03-13T14:02:38;6.15;;;2.20;;
57535;SDS011;43361;49.790;8.960;2023-03-13T14:12:50;7.17;;;2.83;;
57535;SDS011;43361;49.790;8.960;2023-03-13T14:22:50;5.60;;;2.10;;
57535;SDS011;43361;49.790;8.960;2023-03-13T14:32:54;6.53;;;2.33;;
57535;SDS011;43361;49.790;8.960;2023-03-13T14:42:55;8.82;;;2.17;;
57535;SDS011;43361;49.790;8.960;2023-03-13T14:52:58;7.78;;;1.88;;
57535;SDS011;43361;49.790;8.960;2023-03-13T15:13:34;8.07;;;2.38;;
57535;SDS011;43361;49.790;8.960;2023-03-13T15:23:35;7.53;;;2.42;;
57535;SDS011;43361;49.790;8.960;2023-03-13T15:33:36;8.18;;;2.40;;
57535;SDS011;43361;49.790;8.960;2023-03-13T15:43:37;5.82;;;1.98;;
57535;SDS011;43361;49.790;8.960;2023-03-13T15:53:39;7.00;;;1.90;;
57535;SDS011;43361;49.790;8.960;2023-03-13T16:03:40;5.65;;;2.15;;
57535;SDS011;43361;49.790;8.960;2023-03-13T16:13:42;5.45;;;2.17;;
57535;SDS011;43361;49.790;8.960;2023-03-13T16:23:42;5.43;;;1.83;;
57535;SDS011;43361;49.790;8.960;2023-03-13T16:33:45;10.32;;;2.28;;
57535;SDS011;43361;49.790;8.960;2023-03-13T16:43:45;7.18;;;1.95;;
57535;SDS011;43361;49.790;8.960;2023-03-13T16:53:48;5.53;;;1.98;;
57535;SDS011;43361;49.790;8.960;2023-03-13T17:03:49;15.05;;;1.85;;
57535;SDS011;43361;49.790;8.960;2023-03-13T17:13:51;51.60;;;18.10;;
57535;SDS011;43361;49.790;8.960;2023-03-13T17:23:52;59.83;;;23.17;;
57535;SDS011;43361;49.790;8.960;2023-03-13T17:33:54;68.88;;;31.23;;
57535;SDS011;43361;49.790;8.960;2023-03-13T17:43:54;56.70;;;27.80;;
57535;SDS011;43361;49.790;8.960;2023-03-13T17:53:56;46.67;;;24.65;;
57535;SDS011;43361;49.790;8.960;2023-03-13T18:03:57;38.05;;;17.67;;
57535;SDS011;43361;49.790;8.960;2023-03-13T18:13:59;33.97;;;16.08;;
57535;SDS011;43361;49.790;8.960;2023-03-13T18:24:00;29.52;;;13.85;;
57535;SDS011;43361;49.790;8.960;2023-03-13T18:34:02;28.98;;;13.27;;
57535;SDS011;43361;49.790;8.960;2023-03-13T18:44:03;29.88;;;13.02;;
57535;SDS011;43361;49.790;8.960;2023-03-13T18:54:05;23.27;;;11.10;;
57535;SDS011;43361;49.790;8.960;2023-03-13T19:04:05;34.75;;;11.20;;
57535;SDS011;43361;49.790;8.960;2023-03-13T19:14:07;22.00;;;10.55;;
57535;SDS011;43361;49.790;8.960;2023-03-13T19:24:08;21.80;;;9.30;;
57535;SDS011;43361;49.790;8.960;2023-03-13T19:34:10;21.67;;;8.07;;
57535;SDS011;43361;49.790;8.960;2023-03-13T19:44:11;20.95;;;9.20;;
57535;SDS011;43361;49.790;8.960;2023-03-13T19:54:13;18.10;;;7.90;;
57535;SDS011;43361;49.790;8.960;2023-03-13T20:04:13;15.15;;;7.13;;
57535;SDS011;43361;49.790;8.960;2023-03-13T20:14:15;13.90;;;6.53;;
57535;SDS011;43361;49.790;8.960;2023-03-13T20:24:16;14.23;;;5.97;;
57535;SDS011;43361;49.790;8.960;2023-03-13T20:34:18;12.77;;;5.50;;
57535;SDS011;43361;49.790;8.960;2023-03-13T20:44:18;11.43;;;5.72;;
57535;SDS011;43361;49.790;8.960;2023-03-13T20:54:21;10.45;;;5.75;;
57535;SDS011;43361;49.790;8.960;2023-03-13T21:04:21;10.00;;;5.00;;
57535;SDS011;43361;49.790;8.960;2023-03-13T21:14:23;11.57;;;5.32;;
57535;SDS011;43361;49.790;8.960;2023-03-13T21:24:23;10.00;;;4.35;;
57535;SDS011;43361;49.790;8.960;2023-03-13T21:34:25;7.00;;;3.97;;
57535;SDS011;43361;49.790;8.960;2023-03-13T21:44:25;9.05;;;3.95;;
57535;SDS011;43361;49.790;8.960;2023-03-13T21:54:27;7.32;;;3.85;;
57535;SDS011;43361;49.790;8.960;2023-03-13T22:04:27;9.70;;;4.07;;
57535;SDS011;43361;49.790;8.960;2023-03-13T22:14:29;7.05;;;3.65;;
57535;SDS011;43361;49.790;8.960;2023-03-13T22:24:30;7.15;;;3.35;;
57535;SDS011;43361;49.790;8.960;2023-03-13T22:44:31;7.30;;;3.20;;
57535;SDS011;43361;49.790;8.960;2023-03-13T22:54:32;6.95;;;2.80;;
57535;SDS011;43361;49.790;8.960;2023-03-13T23:14:34;4.60;;;3.10;;
57535;SDS011;43361;49.790;8.960;2023-03-13T23:24:34;6.28;;;2.58;;
57535;SDS011;43361;49.790;8.960;2023-03-13T23:34:36;3.90;;;2.08;;
57535;SDS011;43361;49.790;8.960;2023-03-13T23:44:36;4.85;;;2.45;;
